sensor_id;sensor_type;location;lat;lon;timestamp;pressure;altitude;pressure_sealevel;temperature;humidity
68758;BME280;55747;51.998;4.466;2022-08-23T00:01:43;77291.22;;;-144.48;59.82
68758;BME280;55747;51.998;4.466;2022-08-23T00:04:13;77295.38;;;-144.48;59.34
68758;BME280;55747;51.998;4.466;2022-08-23T00:06:40;77297.47;;;-144.48;59.44
68758;BME280;55747;51.998;4.466;2022-08-23T00:09:06;77295.38;;;-144.48;59.70
68758;BME280;55747;51.998;4.466;2022-08-23T00:15:38;77320.31;;;-144.48;59.72
68758;BME280;55747;51.998;4.466;2022-08-23T00:18:03;77312.00;;;-144.48;59.25
68758;BME280;55747;51.998;4.466;2022-08-23T00:20:28;77326.56;;;-144.48;58.92
68758;BME280;55747;51.998;4.466;2022-08-23T00:22:54;77334.88;;;-144.48;59.56
68758;BME280;55747;51.998;4.466;2022-08-23T00:25:22;77334.88;;;-144.48;60.68
68758;BME280;55747;51.998;4.466;2022-08-23T00:27:48;77343.19;;;-144.48;61.22
68758;BME280;55747;51.998;4.466;2022-08-23T00:30:14;77349.41;;;-144.48;61.42
68758;BME280;55747;51.998;4.466;2022-08-23T00:32:40;77353.56;;;-144.48;62.23
68758;BME280;55747;51.998;4.466;2022-08-23T00:35:07;77355.66;;;-144.48;62.46
68758;BME280;55747;51.998;4.466;2022-08-23T00:37:34;77359.81;;;-144.48;63.01
68758;BME280;55747;51.998;4.466;2022-08-23T00:40:00;77355.66;;;-144.48;63.04
68758;BME280;55747;51.998;4.466;2022-08-23T00:45:20;77324.47;;;-144.48;60.44
68758;BME280;55747;51.998;4.466;2022-08-23T00:48:06;77309.94;;;-144.48;60.44
68758;BME280;55747;51.998;4.466;2022-08-23T00:53:33;77287.06;;;-144.48;60.86
68758;BME280;55747;51.998;4.466;2022-08-23T00:56:05;77278.75;;;-144.48;60.53
68758;BME280;55747;51.998;4.466;2022-08-23T00:58:33;77285.00;;;-144.48;60.11
68758;BME280;55747;51.998;4.466;2022-08-23T01:01:00;77276.69;;;-144.48;59.93
68758;BME280;55747;51.998;4.466;2022-08-23T01:03:28;77270.44;;;-144.48;59.95
68758;BME280;55747;51.998;4.466;2022-08-23T01:06:02;77278.75;;;-144.48;60.08
68758;BME280;55747;51.998;4.466;2022-08-23T01:08:31;77285.00;;;-144.48;60.26
68758;BME280;55747;51.998;4.466;2022-08-23T01:11:27;77287.06;;;-144.48;60.49
68758;BME280;55747;51.998;4.466;2022-08-23T01:14:07;77287.06;;;-144.48;60.59
68758;BME280;55747;51.998;4.466;2022-08-23T01:16:39;77276.69;;;-144.48;60.91
68758;BME280;55747;51.998;4.466;2022-08-23T01:19:14;77276.69;;;-144.48;61.88
68758;BME280;55747;51.998;4.466;2022-08-23T01:21:52;77278.75;;;-144.48;62.48
68758;BME280;55747;51.998;4.466;2022-08-23T01:24:19;77276.69;;;-144.48;61.19
68758;BME280;55747;51.998;4.466;2022-08-23T01:26:45;77266.28;;;-144.48;60.24
68758;BME280;55747;51.998;4.466;2022-08-23T01:29:11;77268.38;;;-144.48;59.93
68758;BME280;55747;51.998;4.466;2022-08-23T01:31:37;77264.22;;;-144.48;59.81
68758;BME280;55747;51.998;4.466;2022-08-23T01:34:06;77266.28;;;-144.48;60.16
68758;BME280;55747;51.998;4.466;2022-08-23T01:36:32;77266.28;;;-144.48;60.34
68758;BME280;55747;51.998;4.466;2022-08-23T01:38:58;77262.13;;;-144.48;60.50
68758;BME280;55747;51.998;4.466;2022-08-23T01:41:33;77260.06;;;-144.48;60.31
68758;BME280;55747;51.998;4.466;2022-08-23T01:44:01;77249.66;;;-144.48;60.21
68758;BME280;55747;51.998;4.466;2022-08-23T01:46:26;77255.91;;;-144.48;59.69
68758;BME280;55747;51.998;4.466;2022-08-23T01:48:52;77247.59;;;-144.48;59.62
68758;BME280;55747;51.998;4.466;2022-08-23T01:51:22;77241.34;;;-144.48;59.75
68758;BME280;55747;51.998;4.466;2022-08-23T01:53:50;77235.13;;;-144.48;59.81
68758;BME280;55747;51.998;4.466;2022-08-23T01:56:17;77237.19;;;-144.48;59.67
68758;BME280;55747;51.998;4.466;2022-08-23T01:58:45;77228.88;;;-144.48;59.67
68758;BME280;55747;51.998;4.466;2022-08-23T02:01:10;77230.97;;;-144.48;59.84
68758;BME280;55747;51.998;4.466;2022-08-23T02:03:36;77230.97;;;-144.48;59.92
68758;BME280;55747;51.998;4.466;2022-08-23T02:06:02;77241.34;;;-144.48;59.84
68758;BME280;55747;51.998;4.466;2022-08-23T02:08:28;77237.19;;;-144.48;60.25
68758;BME280;55747;51.998;4.466;2022-08-23T02:11:18;77226.81;;;-144.48;60.00
68758;BME280;55747;51.998;4.466;2022-08-23T02:13:46;77226.81;;;-144.48;59.67
68758;BME280;55747;51.998;4.466;2022-08-23T02:16:12;77226.81;;;-144.48;59.55
68758;BME280;55747;51.998;4.466;2022-08-23T02:18:38;77226.81;;;-144.48;59.50
68758;BME280;55747;51.998;4.466;2022-08-23T02:21:03;77226.81;;;-144.48;59.68
68758;BME280;55747;51.998;4.466;2022-08-23T02:23:29;77235.13;;;-144.48;59.86
68758;BME280;55747;51.998;4.466;2022-08-23T02:25:55;77228.88;;;-144.48;59.88
68758;BME280;55747;51.998;4.466;2022-08-23T02:28:22;77237.19;;;-144.48;59.53
68758;BME280;55747;51.998;4.466;2022-08-23T02:30:49;77220.56;;;-144.48;59.03
68758;BME280;55747;51.998;4.466;2022-08-23T02:33:14;77218.50;;;-144.48;59.28
68758;BME280;55747;51.998;4.466;2022-08-23T02:35:40;77226.81;;;-144.48;59.47
68758;BME280;55747;51.998;4.466;2022-08-23T02:38:07;77228.88;;;-144.48;59.41
68758;BME280;55747;51.998;4.466;2022-08-23T02:40:33;77228.88;;;-144.48;59.47
68758;BME280;55747;51.998;4.466;2022-08-23T02:43:00;77228.88;;;-144.48;59.19
68758;BME280;55747;51.998;4.466;2022-08-23T02:45:26;77218.50;;;-144.48;59.05
68758;BME280;55747;51.998;4.466;2022-08-23T02:47:52;77210.19;;;-144.48;58.44
68758;BME280;55747;51.998;4.466;2022-08-23T02:50:18;77212.25;;;-144.48;58.41
68758;BME280;55747;51.998;4.466;2022-08-23T02:52:43;77216.41;;;-144.48;58.46
68758;BME280;55747;51.998;4.466;2022-08-23T02:55:10;77222.66;;;-144.48;58.71
68758;BME280;55747;51.998;4.466;2022-08-23T02:57:36;77224.72;;;-144.48;58.95
68758;BME280;55747;51.998;4.466;2022-08-23T03:00:04;77218.50;;;-144.48;58.29
68758;BME280;55747;51.998;4.466;2022-08-23T03:02:29;77212.25;;;-144.48;58.18
68758;BME280;55747;51.998;4.466;2022-08-23T03:04:55;77199.78;;;-144.48;57.86
68758;BME280;55747;51.998;4.466;2022-08-23T03:07:20;77195.63;;;-144.48;57.85
68758;BME280;55747;51.998;4.466;2022-08-23T03:09:45;77203.94;;;-144.48;57.81
68758;BME280;55747;51.998;4.466;2022-08-23T03:12:11;77210.19;;;-144.48;57.92
68758;BME280;55747;51.998;4.466;2022-08-23T03:14:39;77220.56;;;-144.48;58.05
68758;BME280;55747;51.998;4.466;2022-08-23T03:17:05;77214.34;;;-144.48;58.10
68758;BME280;55747;51.998;4.466;2022-08-23T03:19:32;77224.72;;;-144.48;58.10
68758;BME280;55747;51.998;4.466;2022-08-23T03:21:57;77222.66;;;-144.48;58.30
68758;BME280;55747;51.998;4.466;2022-08-23T03:24:23;77210.19;;;-144.48;59.50
68758;BME280;55747;51.998;4.466;2022-08-23T03:26:48;77203.94;;;-144.48;59.80
68758;BME280;55747;51.998;4.466;2022-08-23T03:29:13;77206.03;;;-144.48;59.82
68758;BME280;55747;51.998;4.466;2022-08-23T03:31:39;77220.56;;;-144.48;60.44
68758;BME280;55747;51.998;4.466;2022-08-23T03:34:07;77230.97;;;-144.48;61.02
68758;BME280;55747;51.998;4.466;2022-08-23T03:36:33;77245.50;;;-144.48;62.18
68758;BME280;55747;51.998;4.466;2022-08-23T03:38:59;77251.75;;;-144.48;62.21
68758;BME280;55747;51.998;4.466;2022-08-23T03:41:26;77257.97;;;-144.48;62.49
68758;BME280;55747;51.998;4.466;2022-08-23T03:43:52;77270.44;;;-144.48;63.01
68758;BME280;55747;51.998;4.466;2022-08-23T03:46:17;77285.00;;;-144.48;62.93
68758;BME280;55747;51.998;4.466;2022-08-23T03:48:51;77289.16;;;-144.48;62.55
68758;BME280;55747;51.998;4.466;2022-08-23T03:51:18;77293.31;;;-144.48;62.58
68758;BME280;55747;51.998;4.466;2022-08-23T03:53:44;77301.63;;;-144.48;62.66
68758;BME280;55747;51.998;4.466;2022-08-23T03:56:11;77312.00;;;-144.48;63.07
68758;BME280;55747;51.998;4.466;2022-08-23T03:58:36;77318.25;;;-144.48;63.84
68758;BME280;55747;51.998;4.466;2022-08-23T04:01:01;77334.88;;;-144.48;64.59
68758;BME280;55747;51.998;4.466;2022-08-23T04:03:33;77339.03;;;-144.48;64.84
68758;BME280;55747;51.998;4.466;2022-08-23T04:06:04;77351.50;;;-144.48;64.68
68758;BME280;55747;51.998;4.466;2022-08-23T04:08:34;77368.13;;;-144.48;64.94
68758;BME280;55747;51.998;4.466;2022-08-23T04:10:59;77372.28;;;-144.48;64.80
68758;BME280;55747;51.998;4.466;2022-08-23T04:13:25;77378.53;;;-144.48;65.03
68758;BME280;55747;51.998;4.466;2022-08-23T04:15:58;77382.69;;;-144.48;66.37
68758;BME280;55747;51.998;4.466;2022-08-23T04:18:28;77395.16;;;-144.48;67.29
68758;BME280;55747;51.998;4.466;2022-08-23T04:21:01;77399.31;;;-144.48;68.72
68758;BME280;55747;51.998;4.466;2022-08-23T04:23:45;77411.78;;;-144.48;69.25
68758;BME280;55747;51.998;4.466;2022-08-23T04:26:19;77422.16;;;-144.48;69.25
68758;BME280;55747;51.998;4.466;2022-08-23T04:28:47;77422.16;;;-144.48;69.47
68758;BME280;55747;51.998;4.466;2022-08-23T04:31:22;77428.41;;;-144.48;70.18
68758;BME280;55747;51.998;4.466;2022-08-23T04:33:50;77432.56;;;-144.48;70.40
68758;BME280;55747;51.998;4.466;2022-08-23T04:36:16;77438.78;;;-144.48;69.85
68758;BME280;55747;51.998;4.466;2022-08-23T04:38:41;77428.41;;;-144.48;69.92
68758;BME280;55747;51.998;4.466;2022-08-23T04:41:06;77426.31;;;-144.48;70.30
68758;BME280;55747;51.998;4.466;2022-08-23T04:43:51;77415.94;;;-144.48;69.78
68758;BME280;55747;51.998;4.466;2022-08-23T04:46:16;77403.47;;;-144.48;68.94
68758;BME280;55747;51.998;4.466;2022-08-23T04:48:43;77393.06;;;-144.48;68.20
68758;BME280;55747;51.998;4.466;2022-08-23T04:51:12;77382.69;;;-144.48;67.83
68758;BME280;55747;51.998;4.466;2022-08-23T04:53:38;77376.44;;;-144.48;67.63
68758;BME280;55747;51.998;4.466;2022-08-23T04:56:04;77374.38;;;-144.48;68.28
68758;BME280;55747;51.998;4.466;2022-08-23T04:58:34;77378.53;;;-144.48;68.41
68758;BME280;55747;51.998;4.466;2022-08-23T05:01:09;77382.69;;;-144.48;70.19
68758;BME280;55747;51.998;4.466;2022-08-23T05:03:35;77399.31;;;-144.48;70.23
68758;BME280;55747;51.998;4.466;2022-08-23T05:06:01;77411.78;;;-144.48;69.57
68758;BME280;55747;51.998;4.466;2022-08-23T05:08:31;77409.69;;;-144.48;69.41
68758;BME280;55747;51.998;4.466;2022-08-23T05:11:06;77415.94;;;-144.48;69.38
68758;BME280;55747;51.998;4.466;2022-08-23T05:13:35;77409.69;;;-144.48;69.20
68758;BME280;55747;51.998;4.466;2022-08-23T05:16:01;77411.78;;;-144.48;69.31
68758;BME280;55747;51.998;4.466;2022-08-23T05:18:29;77407.63;;;-144.48;69.26
68758;BME280;55747;51.998;4.466;2022-08-23T05:20:55;77405.53;;;-144.48;69.28
68758;BME280;55747;51.998;4.466;2022-08-23T05:23:27;77403.47;;;-144.48;68.57
68758;BME280;55747;51.998;4.466;2022-08-23T05:25:55;77397.22;;;-144.48;68.36
68758;BME280;55747;51.998;4.466;2022-08-23T05:28:46;77386.84;;;-144.48;67.98
68758;BME280;55747;51.998;4.466;2022-08-23T05:33:46;77363.97;;;-144.48;67.35
68758;BME280;55747;51.998;4.466;2022-08-23T05:36:13;77359.81;;;-144.48;67.21
68758;BME280;55747;51.998;4.466;2022-08-23T05:38:40;77355.66;;;-144.48;66.58
68758;BME280;55747;51.998;4.466;2022-08-23T05:41:06;77345.25;;;-144.48;66.19
68758;BME280;55747;51.998;4.466;2022-08-23T05:43:32;77339.03;;;-144.48;66.19
68758;BME280;55747;51.998;4.466;2022-08-23T05:46:12;77322.41;;;-144.48;66.03
68758;BME280;55747;51.998;4.466;2022-08-23T05:48:40;77110.44;;;-144.48;61.91
68758;BME280;55747;51.998;4.466;2022-08-23T05:53:48;76586.75;;;-144.48;49.53
68758;BME280;55747;51.998;4.466;2022-08-23T05:59:00;76370.66;;;-144.48;43.64
68758;BME280;55747;51.998;4.466;2022-08-23T06:01:32;76287.56;;;-144.48;41.67
68758;BME280;55747;51.998;4.466;2022-08-23T06:04:18;76189.91;;;-144.48;39.79
68758;BME280;55747;51.998;4.466;2022-08-23T06:06:43;76142.13;;;-144.48;39.17
68758;BME280;55747;51.998;4.466;2022-08-23T06:09:11;76059.03;;;-144.48;38.26
68758;BME280;55747;51.998;4.466;2022-08-23T06:11:43;76167.06;;;-144.48;37.71
68758;BME280;55747;51.998;4.466;2022-08-23T06:14:09;76108.88;;;-144.48;38.00
68758;BME280;55747;51.998;4.466;2022-08-23T06:16:41;76059.03;;;-144.48;36.98
68758;BME280;55747;51.998;4.466;2022-08-23T06:19:07;76075.63;;;-144.48;37.38
68758;BME280;55747;51.998;4.466;2022-08-23T06:21:33;76011.22;;;-144.48;36.81
68758;BME280;55747;51.998;4.466;2022-08-23T06:24:00;75978.00;;;-144.48;36.30
68758;BME280;55747;51.998;4.466;2022-08-23T06:26:32;75998.78;;;-144.48;36.84
68758;BME280;55747;51.998;4.466;2022-08-23T06:29:00;75928.13;;;-144.48;36.24
68758;BME280;55747;51.998;4.466;2022-08-23T06:31:27;75940.59;;;-144.48;36.33
68758;BME280;55747;51.998;4.466;2022-08-23T06:34:23;75901.13;;;-144.48;36.41
68758;BME280;55747;51.998;4.466;2022-08-23T06:36:56;75896.97;;;-144.48;36.71
68758;BME280;55747;51.998;4.466;2022-08-23T06:39:25;75934.38;;;-144.48;37.76
68758;BME280;55747;51.998;4.466;2022-08-23T06:41:59;76029.94;;;-144.48;39.09
68758;BME280;55747;51.998;4.466;2022-08-23T06:44:29;76005.00;;;-144.48;38.90
68758;BME280;55747;51.998;4.466;2022-08-23T06:46:55;75899.03;;;-144.48;37.98
68758;BME280;55747;51.998;4.466;2022-08-23T06:49:22;75896.97;;;-144.48;37.55
68758;BME280;55747;51.998;4.466;2022-08-23T06:51:49;75815.94;;;-144.48;36.52
68758;BME280;55747;51.998;4.466;2022-08-23T06:54:17;75693.38;;;-144.48;35.13
68758;BME280;55747;51.998;4.466;2022-08-23T06:56:52;75699.59;;;-144.48;34.91
68758;BME280;55747;51.998;4.466;2022-08-23T06:59:39;75658.06;;;-144.48;33.89
68758;BME280;55747;51.998;4.466;2022-08-23T07:02:06;75643.53;;;-144.48;33.87
68758;BME280;55747;51.998;4.466;2022-08-23T07:04:58;75591.59;;;-144.48;33.38
68758;BME280;55747;51.998;4.466;2022-08-23T07:07:24;75577.03;;;-144.48;32.71
68758;BME280;55747;51.998;4.466;2022-08-23T07:09:55;75824.25;;;-144.48;35.18
68758;BME280;55747;51.998;4.466;2022-08-23T07:12:25;75869.97;;;-144.48;35.90
68758;BME280;55747;51.998;4.466;2022-08-23T07:14:50;75917.75;;;-144.48;36.32
68758;BME280;55747;51.998;4.466;2022-08-23T07:17:21;75826.34;;;-144.48;35.77
68758;BME280;55747;51.998;4.466;2022-08-23T07:19:49;75728.69;;;-144.48;34.35
68758;BME280;55747;51.998;4.466;2022-08-23T07:22:27;75693.38;;;-144.48;33.63
68758;BME280;55747;51.998;4.466;2022-08-23T07:24:52;75639.38;;;-144.48;32.90
68758;BME280;55747;51.998;4.466;2022-08-23T07:27:18;75631.06;;;-144.48;32.53
68758;BME280;55747;51.998;4.466;2022-08-23T07:29:46;75728.69;;;-144.48;33.65
68758;BME280;55747;51.998;4.466;2022-08-23T07:32:23;75643.53;;;-144.48;32.66
68758;BME280;55747;51.998;4.466;2022-08-23T07:34:51;75664.28;;;-144.48;33.10
68758;BME280;55747;51.998;4.466;2022-08-23T07:37:17;75568.72;;;-144.48;32.34
68758;BME280;55747;51.998;4.466;2022-08-23T07:39:43;75533.41;;;-144.48;31.79
68758;BME280;55747;51.998;4.466;2022-08-23T07:42:08;75518.88;;;-144.48;31.60
68758;BME280;55747;51.998;4.466;2022-08-23T07:44:33;75446.16;;;-144.48;31.00
68758;BME280;55747;51.998;4.466;2022-08-23T07:46:59;75469.03;;;-144.48;30.81
68758;BME280;55747;51.998;4.466;2022-08-23T07:49:24;75383.84;;;-144.48;30.26
68758;BME280;55747;51.998;4.466;2022-08-23T07:51:52;75446.16;;;-144.48;30.58
68758;BME280;55747;51.998;4.466;2022-08-23T07:54:23;75479.41;;;-144.48;30.77
68758;BME280;55747;51.998;4.466;2022-08-23T07:56:50;75525.09;;;-144.48;30.95
68758;BME280;55747;51.998;4.466;2022-08-23T07:59:15;75730.78;;;-144.48;33.09
68758;BME280;55747;51.998;4.466;2022-08-23T08:01:44;75776.47;;;-144.48;33.29
68758;BME280;55747;51.998;4.466;2022-08-23T08:04:10;75772.31;;;-144.48;33.27
68758;BME280;55747;51.998;4.466;2022-08-23T08:06:47;75759.84;;;-144.48;33.13
68758;BME280;55747;51.998;4.466;2022-08-23T08:09:13;75716.22;;;-144.48;32.66
68758;BME280;55747;51.998;4.466;2022-08-23T08:11:42;75722.47;;;-144.48;32.70
68758;BME280;55747;51.998;4.466;2022-08-23T08:14:08;75971.75;;;-144.48;35.67
68758;BME280;55747;51.998;4.466;2022-08-23T08:16:37;76088.09;;;-144.48;37.41
68758;BME280;55747;51.998;4.466;2022-08-23T08:19:06;76081.88;;;-144.48;37.33
68758;BME280;55747;51.998;4.466;2022-08-23T08:21:32;76079.78;;;-144.48;37.69
68758;BME280;55747;51.998;4.466;2022-08-23T08:23:58;76100.56;;;-144.48;38.42
68758;BME280;55747;51.998;4.466;2022-08-23T08:26:24;76125.50;;;-144.48;37.92
68758;BME280;55747;51.998;4.466;2022-08-23T08:28:49;76127.59;;;-144.48;38.66
68758;BME280;55747;51.998;4.466;2022-08-23T08:31:30;76183.69;;;-144.48;40.09
68758;BME280;55747;51.998;4.466;2022-08-23T08:34:12;76023.69;;;-144.48;38.08
68758;BME280;55747;51.998;4.466;2022-08-23T08:36:45;75986.31;;;-144.48;37.21
68758;BME280;55747;51.998;4.466;2022-08-23T08:39:24;76073.56;;;-144.48;37.97
68758;BME280;55747;51.998;4.466;2022-08-23T08:44:43;76231.47;;;-144.48;40.31
68758;BME280;55747;51.998;4.466;2022-08-23T08:47:39;76237.69;;;-144.48;40.73
68758;BME280;55747;51.998;4.466;2022-08-23T08:50:31;76239.78;;;-144.48;40.53
68758;BME280;55747;51.998;4.466;2022-08-23T08:55:40;76279.25;;;-144.48;41.36
68758;BME280;55747;51.998;4.466;2022-08-23T08:58:19;76302.09;;;-144.48;41.96
68758;BME280;55747;51.998;4.466;2022-08-23T09:00:46;76381.06;;;-144.48;43.17
68758;BME280;55747;51.998;4.466;2022-08-23T09:03:22;76333.28;;;-144.48;42.29
68758;BME280;55747;51.998;4.466;2022-08-23T09:06:13;76310.41;;;-144.48;42.43
68758;BME280;55747;51.998;4.466;2022-08-23T09:18:30;76196.16;;;-144.48;39.77
68758;BME280;55747;51.998;4.466;2022-08-23T09:25:04;76094.34;;;-144.48;38.86
68758;BME280;55747;51.998;4.466;2022-08-23T09:27:43;75978.00;;;-144.48;37.52
68758;BME280;55747;51.998;4.466;2022-08-23T09:30:12;75896.97;;;-144.48;36.52
68758;BME280;55747;51.998;4.466;2022-08-23T09:32:44;75811.78;;;-144.48;35.39
68758;BME280;55747;51.998;4.466;2022-08-23T09:35:27;75965.53;;;-144.48;37.15
68758;BME280;55747;51.998;4.466;2022-08-23T09:38:01;75869.97;;;-144.48;36.66
68758;BME280;55747;51.998;4.466;2022-08-23T09:40:45;75828.41;;;-144.48;35.50
68758;BME280;55747;51.998;4.466;2022-08-23T09:43:28;75795.16;;;-144.48;34.97
68758;BME280;55747;51.998;4.466;2022-08-23T09:46:24;76054.88;;;-144.48;37.93
68758;BME280;55747;51.998;4.466;2022-08-23T09:49:28;75774.41;;;-144.48;35.21
68758;BME280;55747;51.998;4.466;2022-08-23T09:51:57;75493.94;;;-144.48;31.43
68758;BME280;55747;51.998;4.466;2022-08-23T09:54:55;75450.31;;;-144.48;31.27
68758;BME280;55747;51.998;4.466;2022-08-23T09:57:26;75498.09;;;-144.48;31.31
68758;BME280;55747;51.998;4.466;2022-08-23T10:03:28;75356.84;;;-144.48;30.09
68758;BME280;55747;51.998;4.466;2022-08-23T10:06:10;75425.41;;;-144.48;30.36
68758;BME280;55747;51.998;4.466;2022-08-23T10:08:55;75483.56;;;-144.48;30.09
68758;BME280;55747;51.998;4.466;2022-08-23T10:11:38;75641.44;;;-144.48;29.98
68758;BME280;55747;51.998;4.466;2022-08-23T10:14:07;75622.75;;;-144.48;30.47
68758;BME280;55747;51.998;4.466;2022-08-23T10:27:36;75743.22;;;-144.48;31.57
68758;BME280;55747;51.998;4.466;2022-08-23T10:30:38;75739.09;;;-144.48;31.57
68758;BME280;55747;51.998;4.466;2022-08-23T10:33:14;75784.78;;;-144.48;31.69
68758;BME280;55747;51.998;4.466;2022-08-23T10:47:28;75828.41;;;-144.48;33.13
68758;BME280;55747;51.998;4.466;2022-08-23T10:50:03;75745.31;;;-144.48;31.96
68758;BME280;55747;51.998;4.466;2022-08-23T10:52:53;75797.25;;;-144.48;32.90
68758;BME280;55747;51.998;4.466;2022-08-23T10:55:32;75712.06;;;-144.48;31.93
68758;BME280;55747;51.998;4.466;2022-08-23T10:58:14;75772.31;;;-144.48;32.58
68758;BME280;55747;51.998;4.466;2022-08-23T11:00:44;75813.88;;;-144.48;33.16
68758;BME280;55747;51.998;4.466;2022-08-23T11:03:32;75801.41;;;-144.48;32.53
68758;BME280;55747;51.998;4.466;2022-08-23T11:07:00;75724.53;;;-144.48;31.79
68758;BME280;55747;51.998;4.466;2022-08-23T11:14:36;75757.78;;;-144.48;32.42
68758;BME280;55747;51.998;4.466;2022-08-23T11:33:47;75842.94;;;-144.48;33.67
68758;BME280;55747;51.998;4.466;2022-08-23T11:36:18;75853.34;;;-144.48;33.25
68758;BME280;55747;51.998;4.466;2022-08-23T11:41:35;75909.44;;;-144.48;34.25
68758;BME280;55747;51.998;4.466;2022-08-23T11:44:22;75890.72;;;-144.48;33.64
68758;BME280;55747;51.998;4.466;2022-08-23T11:55:59;76094.34;;;-144.48;36.54
68758;BME280;55747;51.998;4.466;2022-08-23T12:01:49;76054.88;;;-144.48;34.96
68758;BME280;55747;51.998;4.466;2022-08-23T12:04:42;76019.53;;;-144.48;35.42
68758;BME280;55747;51.998;4.466;2022-08-23T12:16:25;76216.91;;;-144.48;38.40
68758;BME280;55747;51.998;4.466;2022-08-23T12:22:25;76156.66;;;-144.48;38.75
68758;BME280;55747;51.998;4.466;2022-08-23T12:25:27;76086.03;;;-144.48;37.24
68758;BME280;55747;51.998;4.466;2022-08-23T12:31:51;76175.38;;;-144.48;39.05
68758;BME280;55747;51.998;4.466;2022-08-23T12:34:52;76283.41;;;-144.48;39.98
68758;BME280;55747;51.998;4.466;2022-08-23T12:38:13;76322.88;;;-144.48;40.28
68758;BME280;55747;51.998;4.466;2022-08-23T12:40:55;76399.75;;;-144.48;42.61
68758;BME280;55747;51.998;4.466;2022-08-23T12:43:34;76366.53;;;-144.48;41.53
68758;BME280;55747;51.998;4.466;2022-08-23T12:46:28;76343.66;;;-144.48;41.82
68758;BME280;55747;51.998;4.466;2022-08-23T12:48:54;76391.44;;;-144.48;43.51
68758;BME280;55747;51.998;4.466;2022-08-23T12:51:30;76347.81;;;-144.48;43.33
68758;BME280;55747;51.998;4.466;2022-08-23T12:54:12;76077.72;;;-144.48;40.20
68758;BME280;55747;51.998;4.466;2022-08-23T12:56:49;75840.88;;;-144.48;36.74
68758;BME280;55747;51.998;4.466;2022-08-23T13:08:51;75786.84;;;-144.48;36.41
68758;BME280;55747;51.998;4.466;2022-08-23T13:11:22;75730.78;;;-144.48;35.00
68758;BME280;55747;51.998;4.466;2022-08-23T13:14:20;75674.69;;;-144.48;34.64
68758;BME280;55747;51.998;4.466;2022-08-23T13:20:32;75620.66;;;-144.48;34.01
68758;BME280;55747;51.998;4.466;2022-08-23T13:23:13;75722.47;;;-144.48;34.66
68758;BME280;55747;51.998;4.466;2022-08-23T13:29:50;75620.66;;;-144.48;33.66
68758;BME280;55747;51.998;4.466;2022-08-23T13:36:22;75664.28;;;-144.48;33.18
68758;BME280;55747;51.998;4.466;2022-08-23T14:07:22;76088.09;;;-144.48;39.00
68758;BME280;55747;51.998;4.466;2022-08-23T14:09:54;76167.06;;;-144.48;39.66
68758;BME280;55747;51.998;4.466;2022-08-23T14:12:45;76125.50;;;-144.48;39.84
68758;BME280;55747;51.998;4.466;2022-08-23T14:15:12;76021.63;;;-144.48;37.81
68758;BME280;55747;51.998;4.466;2022-08-23T14:24:16;76123.44;;;-144.48;40.05
68758;BME280;55747;51.998;4.466;2022-08-23T14:26:42;75948.91;;;-144.48;37.97
68758;BME280;55747;51.998;4.466;2022-08-23T14:29:10;75961.38;;;-144.48;38.21
68758;BME280;55747;51.998;4.466;2022-08-23T14:31:39;75857.50;;;-144.48;36.61
68758;BME280;55747;51.998;4.466;2022-08-23T14:34:10;75820.09;;;-144.48;35.91
68758;BME280;55747;51.998;4.466;2022-08-23T14:36:40;75778.56;;;-144.48;35.16
68758;BME280;55747;51.998;4.466;2022-08-23T14:39:09;75786.84;;;-144.48;35.49
68758;BME280;55747;51.998;4.466;2022-08-23T14:41:34;75797.25;;;-144.48;35.27
68758;BME280;55747;51.998;4.466;2022-08-23T14:44:10;75799.31;;;-144.48;35.54
68758;BME280;55747;51.998;4.466;2022-08-23T14:46:38;75813.88;;;-144.48;35.67
68758;BME280;55747;51.998;4.466;2022-08-23T14:49:12;75845.03;;;-144.48;36.31
68758;BME280;55747;51.998;4.466;2022-08-23T14:51:47;75822.19;;;-144.48;35.93
68758;BME280;55747;51.998;4.466;2022-08-23T14:54:19;75770.25;;;-144.48;34.84
68758;BME280;55747;51.998;4.466;2022-08-23T14:56:45;75734.94;;;-144.48;34.82
68758;BME280;55747;51.998;4.466;2022-08-23T14:59:11;75788.94;;;-144.48;36.14
68758;BME280;55747;51.998;4.466;2022-08-23T15:01:37;75795.16;;;-144.48;36.46
68758;BME280;55747;51.998;4.466;2022-08-23T15:04:03;75828.41;;;-144.48;36.85
68758;BME280;55747;51.998;4.466;2022-08-23T15:06:37;75832.56;;;-144.48;36.91
68758;BME280;55747;51.998;4.466;2022-08-23T15:09:04;75832.56;;;-144.48;37.27
68758;BME280;55747;51.998;4.466;2022-08-23T15:11:32;75805.56;;;-144.48;37.38
68758;BME280;55747;51.998;4.466;2022-08-23T15:13:57;75815.94;;;-144.48;37.40
68758;BME280;55747;51.998;4.466;2022-08-23T15:16:26;75818.03;;;-144.48;36.98
68758;BME280;55747;51.998;4.466;2022-08-23T15:18:53;75811.78;;;-144.48;37.02
68758;BME280;55747;51.998;4.466;2022-08-23T15:21:19;75832.56;;;-144.48;37.27
68758;BME280;55747;51.998;4.466;2022-08-23T15:23:45;75847.09;;;-144.48;37.73
68758;BME280;55747;51.998;4.466;2022-08-23T15:26:10;75834.63;;;-144.48;38.03
68758;BME280;55747;51.998;4.466;2022-08-23T15:28:37;75840.88;;;-144.48;37.47
68758;BME280;55747;51.998;4.466;2022-08-23T15:31:12;75855.41;;;-144.48;37.62
68758;BME280;55747;51.998;4.466;2022-08-23T15:33:38;75861.66;;;-144.48;37.64
68758;BME280;55747;51.998;4.466;2022-08-23T15:36:04;75826.34;;;-144.48;37.29
68758;BME280;55747;51.998;4.466;2022-08-23T15:38:31;75815.94;;;-144.48;37.10
68758;BME280;55747;51.998;4.466;2022-08-23T15:40:57;75818.03;;;-144.48;36.96
68758;BME280;55747;51.998;4.466;2022-08-23T15:43:23;75797.25;;;-144.48;36.89
68758;BME280;55747;51.998;4.466;2022-08-23T15:45:52;75818.03;;;-144.48;37.03
68758;BME280;55747;51.998;4.466;2022-08-23T15:48:20;75845.03;;;-144.48;37.69
68758;BME280;55747;51.998;4.466;2022-08-23T15:50:46;75849.19;;;-144.48;37.39
68758;BME280;55747;51.998;4.466;2022-08-23T15:53:12;75905.28;;;-144.48;38.28
68758;BME280;55747;51.998;4.466;2022-08-23T15:55:39;75965.53;;;-144.48;39.08